Leesburg International Airport
KLEE : now visible

Airfield :











YOU CAN JOIN US ON...

 
LOGIN :

Register | Disclaimer

   EN    FR    IT 

 









Legend :    VFR   Marginal VFR   IFR   Intensive IFR   Very Intensive IFR
Visi :
Ceiling :
>= 8 km
>= 3000ft
5 to 8 km
1000 to 3000 ft
1500m to 5 km
500 to 1000 ft
800 to 1500m
200 to 500 ft
< 800m
< 200 ft
Symbols :   Thunderstorms  Fog  Heavy snow  Heavy precipitations  Wind > 20 kt






- Airport Elevation : 76 ft


KLEE - Leesburg International

CURRENT METAR :
  • 122253Z 28003KT 10SM FEW047 SCT055 SCT075 24/18 A2991 RMK AO2 SLP126 T02440183

EXPIRED METARs :
  • 122153Z 28007KT 10SM CLR 26/18 A2989 RMK AO2 SLP120 T02610178
  • 122053Z 26008G15KT 10SM CLR 28/17 A2988 RMK AO2 SLP118 T02780167 56016

TAF KLEE
Valid from the 12 at 18:00 until the 13 at 18:00 UTC


121745Z 1218/1318 24007KT P6SM SCT030 SCT250
FM122100 29008KT P6SM VCSH SCT040 BKN060
FM122300 32008KT P6SM VCSH SCT040 BKN060
FM130200 35012KT P6SM VCSH SCT035 BKN060
FM131500 02013G19KT P6SM SCT025 BKN035



MET'MAP, your aeronautical weather chart ! - Copyright ORBIFLY December 2007 - Disclaimer

ORBIFLY MET'MAP TEAM :

Programming & Development : Alexandra Zaïnal
Concept & Development : Baudouin d'Aumeries
Co-Development & Prog : Marc-Olivier Méhu
Technical & hardware support : Manuel Goepfert

Contact : metmap@orbifly.com




SOURCES & CREDITS :

   NOAA       Earth
Advisory